sensor_id;sensor_type;location;lat;lon;timestamp;P1;durP1;ratioP1;P2;durP2;ratioP2
42104;SDS011;70664;51.472;5.712;2023-08-31T00:02:17;2.83;;;1.10;;
42104;SDS011;70664;51.472;5.712;2023-08-31T00:04:44;5.60;;;1.52;;
42104;SDS011;70664;51.472;5.712;2023-08-31T00:07:10;3.47;;;1.30;;
42104;SDS011;70664;51.472;5.712;2023-08-31T00:09:36;2.60;;;1.13;;
42104;SDS011;70664;51.472;5.712;2023-08-31T00:12:02;3.33;;;1.20;;
42104;SDS011;70664;51.472;5.712;2023-08-31T00:14:28;3.08;;;1.40;;
42104;SDS011;70664;51.472;5.712;2023-08-31T00:16:54;2.33;;;1.38;;
42104;SDS011;70664;51.472;5.712;2023-08-31T00:19:22;2.30;;;1.20;;
42104;SDS011;70664;51.472;5.712;2023-08-31T00:21:48;3.90;;;1.30;;
42104;SDS011;70664;51.472;5.712;2023-08-31T00:24:14;2.88;;;1.40;;
42104;SDS011;70664;51.472;5.712;2023-08-31T00:26:40;2.65;;;1.25;;
42104;SDS011;70664;51.472;5.712;2023-08-31T00:29:10;2.38;;;1.10;;
42104;SDS011;70664;51.472;5.712;2023-08-31T00:31:36;3.33;;;1.10;;
42104;SDS011;70664;51.472;5.712;2023-08-31T00:34:02;2.50;;;1.30;;
42104;SDS011;70664;51.472;5.712;2023-08-31T00:36:30;2.63;;;1.02;;
42104;SDS011;70664;51.472;5.712;2023-08-31T00:38:56;4.50;;;1.40;;
42104;SDS011;70664;51.472;5.712;2023-08-31T00:41:22;2.08;;;1.20;;
42104;SDS011;70664;51.472;5.712;2023-08-31T00:43:48;3.28;;;1.40;;
42104;SDS011;70664;51.472;5.712;2023-08-31T00:46:14;4.53;;;1.50;;
42104;SDS011;70664;51.472;5.712;2023-08-31T00:48:41;3.90;;;1.45;;
42104;SDS011;70664;51.472;5.712;2023-08-31T00:51:07;3.95;;;1.20;;
42104;SDS011;70664;51.472;5.712;2023-08-31T00:53:35;3.35;;;1.20;;
42104;SDS011;70664;51.472;5.712;2023-08-31T00:56:01;3.22;;;1.17;;
42104;SDS011;70664;51.472;5.712;2023-08-31T00:58:27;2.78;;;1.15;;
42104;SDS011;70664;51.472;5.712;2023-08-31T01:01:03;3.67;;;1.40;;
42104;SDS011;70664;51.472;5.712;2023-08-31T01:09:34;3.53;;;1.20;;
42104;SDS011;70664;51.472;5.712;2023-08-31T01:12:09;1.92;;;1.08;;
42104;SDS011;70664;51.472;5.712;2023-08-31T01:14:56;2.13;;;1.10;;
42104;SDS011;70664;51.472;5.712;2023-08-31T01:17:29;2.10;;;1.35;;
42104;SDS011;70664;51.472;5.712;2023-08-31T01:19:58;2.22;;;1.27;;
42104;SDS011;70664;51.472;5.712;2023-08-31T01:22:33;2.38;;;1.40;;
42104;SDS011;70664;51.472;5.712;2023-08-31T01:25:12;2.92;;;1.55;;
42104;SDS011;70664;51.472;5.712;2023-08-31T01:27:38;2.65;;;1.38;;
42104;SDS011;70664;51.472;5.712;2023-08-31T01:30:05;2.90;;;1.10;;
42104;SDS011;70664;51.472;5.712;2023-08-31T01:32:31;1.80;;;1.20;;
42104;SDS011;70664;51.472;5.712;2023-08-31T01:34:58;2.00;;;1.20;;
42104;SDS011;70664;51.472;5.712;2023-08-31T01:40:13;2.30;;;1.05;;
42104;SDS011;70664;51.472;5.712;2023-08-31T01:42:44;1.40;;;1.00;;
42104;SDS011;70664;51.472;5.712;2023-08-31T01:45:13;3.08;;;1.20;;
42104;SDS011;70664;51.472;5.712;2023-08-31T01:47:45;3.70;;;1.38;;
42104;SDS011;70664;51.472;5.712;2023-08-31T01:50:13;1.98;;;0.90;;
42104;SDS011;70664;51.472;5.712;2023-08-31T01:52:40;1.35;;;0.88;;
42104;SDS011;70664;51.472;5.712;2023-08-31T01:55:05;1.98;;;1.08;;
42104;SDS011;70664;51.472;5.712;2023-08-31T01:57:32;1.50;;;1.05;;
42104;SDS011;70664;51.472;5.712;2023-08-31T01:59:58;4.20;;;1.20;;
42104;SDS011;70664;51.472;5.712;2023-08-31T02:02:25;1.98;;;1.15;;
42104;SDS011;70664;51.472;5.712;2023-08-31T02:04:51;1.83;;;1.00;;
42104;SDS011;70664;51.472;5.712;2023-08-31T02:07:17;1.88;;;1.17;;
42104;SDS011;70664;51.472;5.712;2023-08-31T02:09:43;2.22;;;1.27;;
42104;SDS011;70664;51.472;5.712;2023-08-31T02:12:09;2.58;;;1.25;;
42104;SDS011;70664;51.472;5.712;2023-08-31T02:14:35;1.63;;;0.90;;
42104;SDS011;70664;51.472;5.712;2023-08-31T02:17:01;2.88;;;1.30;;
42104;SDS011;70664;51.472;5.712;2023-08-31T02:19:27;1.95;;;1.00;;
42104;SDS011;70664;51.472;5.712;2023-08-31T02:21:53;2.60;;;1.23;;
42104;SDS011;70664;51.472;5.712;2023-08-31T02:24:19;1.83;;;1.17;;
42104;SDS011;70664;51.472;5.712;2023-08-31T02:26:45;1.30;;;1.00;;
42104;SDS011;70664;51.472;5.712;2023-08-31T02:29:11;2.75;;;1.20;;
42104;SDS011;70664;51.472;5.712;2023-08-31T02:31:36;2.50;;;1.20;;
42104;SDS011;70664;51.472;5.712;2023-08-31T02:34:03;2.10;;;1.20;;
42104;SDS011;70664;51.472;5.712;2023-08-31T02:36:29;1.42;;;0.90;;
42104;SDS011;70664;51.472;5.712;2023-08-31T02:38:55;2.53;;;1.30;;
42104;SDS011;70664;51.472;5.712;2023-08-31T02:41:21;2.78;;;1.20;;
42104;SDS011;70664;51.472;5.712;2023-08-31T02:43:50;2.35;;;1.20;;
42104;SDS011;70664;51.472;5.712;2023-08-31T02:46:19;2.13;;;1.02;;
42104;SDS011;70664;51.472;5.712;2023-08-31T02:48:45;2.50;;;1.05;;
42104;SDS011;70664;51.472;5.712;2023-08-31T02:51:11;1.08;;;0.80;;
42104;SDS011;70664;51.472;5.712;2023-08-31T02:53:37;1.27;;;0.80;;
42104;SDS011;70664;51.472;5.712;2023-08-31T02:56:03;1.90;;;1.10;;
42104;SDS011;70664;51.472;5.712;2023-08-31T02:58:29;3.58;;;1.20;;
42104;SDS011;70664;51.472;5.712;2023-08-31T03:00:55;2.33;;;1.10;;
42104;SDS011;70664;51.472;5.712;2023-08-31T03:03:30;2.05;;;1.10;;
42104;SDS011;70664;51.472;5.712;2023-08-31T03:05:56;1.65;;;0.93;;
42104;SDS011;70664;51.472;5.712;2023-08-31T03:08:22;1.67;;;0.90;;
42104;SDS011;70664;51.472;5.712;2023-08-31T03:10:47;2.03;;;1.20;;
42104;SDS011;70664;51.472;5.712;2023-08-31T03:13:13;1.52;;;1.00;;
42104;SDS011;70664;51.472;5.712;2023-08-31T03:15:39;2.10;;;1.00;;
42104;SDS011;70664;51.472;5.712;2023-08-31T03:18:05;2.47;;;1.00;;
42104;SDS011;70664;51.472;5.712;2023-08-31T03:20:31;1.95;;;1.00;;
42104;SDS011;70664;51.472;5.712;2023-08-31T03:22:56;1.40;;;0.90;;
42104;SDS011;70664;51.472;5.712;2023-08-31T03:25:22;2.08;;;1.02;;
42104;SDS011;70664;51.472;5.712;2023-08-31T03:27:49;1.20;;;0.82;;
42104;SDS011;70664;51.472;5.712;2023-08-31T03:30:15;1.42;;;1.00;;
42104;SDS011;70664;51.472;5.712;2023-08-31T03:32:40;1.38;;;0.93;;
42104;SDS011;70664;51.472;5.712;2023-08-31T03:35:07;2.05;;;1.10;;
42104;SDS011;70664;51.472;5.712;2023-08-31T03:37:33;1.50;;;1.00;;
42104;SDS011;70664;51.472;5.712;2023-08-31T03:39:59;1.63;;;0.80;;
42104;SDS011;70664;51.472;5.712;2023-08-31T03:42:25;1.45;;;1.10;;
42104;SDS011;70664;51.472;5.712;2023-08-31T03:44:50;1.38;;;0.80;;
42104;SDS011;70664;51.472;5.712;2023-08-31T03:47:16;1.95;;;1.10;;
42104;SDS011;70664;51.472;5.712;2023-08-31T03:49:42;2.92;;;1.00;;
42104;SDS011;70664;51.472;5.712;2023-08-31T03:52:08;1.70;;;1.00;;
42104;SDS011;70664;51.472;5.712;2023-08-31T03:54:34;2.42;;;1.20;;
42104;SDS011;70664;51.472;5.712;2023-08-31T03:56:59;2.00;;;1.10;;
42104;SDS011;70664;51.472;5.712;2023-08-31T03:59:25;2.60;;;1.02;;
42104;SDS011;70664;51.472;5.712;2023-08-31T04:01:51;1.88;;;1.00;;
42104;SDS011;70664;51.472;5.712;2023-08-31T04:04:17;2.83;;;1.00;;
42104;SDS011;70664;51.472;5.712;2023-08-31T04:06:43;1.70;;;1.00;;
42104;SDS011;70664;51.472;5.712;2023-08-31T04:09:10;1.30;;;0.90;;
42104;SDS011;70664;51.472;5.712;2023-08-31T04:11:35;1.38;;;0.90;;
42104;SDS011;70664;51.472;5.712;2023-08-31T04:14:01;1.92;;;0.90;;
42104;SDS011;70664;51.472;5.712;2023-08-31T04:16:27;1.60;;;1.13;;
42104;SDS011;70664;51.472;5.712;2023-08-31T04:18:54;2.58;;;1.30;;
42104;SDS011;70664;51.472;5.712;2023-08-31T04:21:20;1.33;;;0.90;;
42104;SDS011;70664;51.472;5.712;2023-08-31T04:23:46;1.50;;;1.00;;
42104;SDS011;70664;51.472;5.712;2023-08-31T04:26:12;1.77;;;0.85;;
42104;SDS011;70664;51.472;5.712;2023-08-31T04:28:39;1.48;;;1.00;;
42104;SDS011;70664;51.472;5.712;2023-08-31T04:31:06;1.77;;;1.00;;
42104;SDS011;70664;51.472;5.712;2023-08-31T04:33:33;1.60;;;0.95;;
42104;SDS011;70664;51.472;5.712;2023-08-31T04:36:00;1.60;;;1.10;;
42104;SDS011;70664;51.472;5.712;2023-08-31T04:38:26;1.88;;;1.00;;
42104;SDS011;70664;51.472;5.712;2023-08-31T04:40:52;1.75;;;1.05;;
42104;SDS011;70664;51.472;5.712;2023-08-31T04:43:17;1.15;;;0.75;;
42104;SDS011;70664;51.472;5.712;2023-08-31T04:45:43;1.90;;;1.00;;
42104;SDS011;70664;51.472;5.712;2023-08-31T04:48:09;1.88;;;1.10;;
42104;SDS011;70664;51.472;5.712;2023-08-31T04:50:35;2.10;;;1.15;;
42104;SDS011;70664;51.472;5.712;2023-08-31T04:53:01;2.17;;;0.90;;
42104;SDS011;70664;51.472;5.712;2023-08-31T04:55:26;1.65;;;1.00;;
42104;SDS011;70664;51.472;5.712;2023-08-31T04:57:52;1.23;;;0.98;;
42104;SDS011;70664;51.472;5.712;2023-08-31T05:00:18;1.23;;;0.82;;
42104;SDS011;70664;51.472;5.712;2023-08-31T05:02:44;1.75;;;1.00;;
42104;SDS011;70664;51.472;5.712;2023-08-31T05:05:10;1.63;;;0.80;;
42104;SDS011;70664;51.472;5.712;2023-08-31T05:07:35;1.65;;;0.95;;
42104;SDS011;70664;51.472;5.712;2023-08-31T05:10:02;1.65;;;1.10;;
42104;SDS011;70664;51.472;5.712;2023-08-31T05:12:28;1.67;;;0.90;;
42104;SDS011;70664;51.472;5.712;2023-08-31T05:14:54;2.13;;;0.90;;
42104;SDS011;70664;51.472;5.712;2023-08-31T05:17:21;1.85;;;1.00;;
42104;SDS011;70664;51.472;5.712;2023-08-31T05:19:46;2.72;;;1.20;;
42104;SDS011;70664;51.472;5.712;2023-08-31T05:22:12;2.10;;;0.90;;
42104;SDS011;70664;51.472;5.712;2023-08-31T05:24:38;1.33;;;1.08;;
42104;SDS011;70664;51.472;5.712;2023-08-31T05:27:04;1.73;;;0.90;;
42104;SDS011;70664;51.472;5.712;2023-08-31T05:29:30;1.67;;;1.15;;
42104;SDS011;70664;51.472;5.712;2023-08-31T05:31:56;1.42;;;1.05;;
42104;SDS011;70664;51.472;5.712;2023-08-31T05:34:21;1.70;;;0.90;;
42104;SDS011;70664;51.472;5.712;2023-08-31T05:36:50;3.50;;;1.15;;
42104;SDS011;70664;51.472;5.712;2023-08-31T05:39:16;1.90;;;1.00;;
42104;SDS011;70664;51.472;5.712;2023-08-31T05:41:43;2.83;;;1.40;;
42104;SDS011;70664;51.472;5.712;2023-08-31T05:44:09;1.73;;;0.80;;
42104;SDS011;70664;51.472;5.712;2023-08-31T05:46:35;1.48;;;1.10;;
42104;SDS011;70664;51.472;5.712;2023-08-31T05:49:01;1.70;;;0.95;;
42104;SDS011;70664;51.472;5.712;2023-08-31T05:51:27;1.40;;;0.93;;
42104;SDS011;70664;51.472;5.712;2023-08-31T05:53:53;1.83;;;0.98;;
42104;SDS011;70664;51.472;5.712;2023-08-31T05:56:19;1.55;;;0.88;;
42104;SDS011;70664;51.472;5.712;2023-08-31T05:58:45;1.65;;;0.90;;
42104;SDS011;70664;51.472;5.712;2023-08-31T06:01:10;3.25;;;1.20;;
42104;SDS011;70664;51.472;5.712;2023-08-31T06:03:36;2.15;;;1.25;;
42104;SDS011;70664;51.472;5.712;2023-08-31T06:06:02;1.10;;;0.82;;
42104;SDS011;70664;51.472;5.712;2023-08-31T06:08:28;1.58;;;1.10;;
42104;SDS011;70664;51.472;5.712;2023-08-31T06:10:55;2.03;;;0.93;;
42104;SDS011;70664;51.472;5.712;2023-08-31T06:13:21;1.42;;;0.85;;
42104;SDS011;70664;51.472;5.712;2023-08-31T06:15:47;2.15;;;1.15;;
42104;SDS011;70664;51.472;5.712;2023-08-31T06:18:13;1.77;;;0.73;;
42104;SDS011;70664;51.472;5.712;2023-08-31T06:20:39;5.65;;;1.88;;
42104;SDS011;70664;51.472;5.712;2023-08-31T06:23:05;3.13;;;1.70;;
42104;SDS011;70664;51.472;5.712;2023-08-31T06:25:31;4.93;;;1.77;;
42104;SDS011;70664;51.472;5.712;2023-08-31T06:27:57;3.72;;;2.17;;
42104;SDS011;70664;51.472;5.712;2023-08-31T06:30:23;3.00;;;1.90;;
42104;SDS011;70664;51.472;5.712;2023-08-31T06:32:49;8.13;;;2.90;;
42104;SDS011;70664;51.472;5.712;2023-08-31T06:35:15;3.72;;;2.10;;
42104;SDS011;70664;51.472;5.712;2023-08-31T06:37:42;6.43;;;2.40;;
42104;SDS011;70664;51.472;5.712;2023-08-31T06:40:09;5.32;;;1.98;;
42104;SDS011;70664;51.472;5.712;2023-08-31T06:42:36;8.48;;;2.42;;
42104;SDS011;70664;51.472;5.712;2023-08-31T06:45:06;5.38;;;2.13;;
42104;SDS011;70664;51.472;5.712;2023-08-31T06:47:33;4.10;;;2.30;;
42104;SDS011;70664;51.472;5.712;2023-08-31T06:49:59;5.90;;;2.00;;
42104;SDS011;70664;51.472;5.712;2023-08-31T06:52:25;6.07;;;2.10;;
42104;SDS011;70664;51.472;5.712;2023-08-31T06:54:52;5.05;;;1.98;;
42104;SDS011;70664;51.472;5.712;2023-08-31T06:57:25;7.95;;;2.13;;
42104;SDS011;70664;51.472;5.712;2023-08-31T06:59:52;4.13;;;1.52;;
42104;SDS011;70664;51.472;5.712;2023-08-31T07:02:18;7.60;;;2.33;;
42104;SDS011;70664;51.472;5.712;2023-08-31T07:04:45;3.10;;;1.50;;
42104;SDS011;70664;51.472;5.712;2023-08-31T07:07:11;6.38;;;2.10;;
42104;SDS011;70664;51.472;5.712;2023-08-31T07:09:43;3.92;;;2.00;;
42104;SDS011;70664;51.472;5.712;2023-08-31T07:12:11;4.47;;;1.85;;
42104;SDS011;70664;51.472;5.712;2023-08-31T07:14:37;5.32;;;1.70;;
42104;SDS011;70664;51.472;5.712;2023-08-31T07:17:03;5.63;;;2.40;;
42104;SDS011;70664;51.472;5.712;2023-08-31T07:19:29;5.10;;;2.15;;
42104;SDS011;70664;51.472;5.712;2023-08-31T07:21:55;5.00;;;1.95;;
42104;SDS011;70664;51.472;5.712;2023-08-31T07:24:22;3.30;;;1.58;;
42104;SDS011;70664;51.472;5.712;2023-08-31T07:26:48;5.20;;;1.40;;
42104;SDS011;70664;51.472;5.712;2023-08-31T07:29:15;2.90;;;1.20;;
42104;SDS011;70664;51.472;5.712;2023-08-31T07:31:42;4.88;;;1.60;;
42104;SDS011;70664;51.472;5.712;2023-08-31T07:34:07;5.10;;;1.40;;
42104;SDS011;70664;51.472;5.712;2023-08-31T07:36:33;3.92;;;1.60;;
42104;SDS011;70664;51.472;5.712;2023-08-31T07:38:59;4.88;;;1.52;;
42104;SDS011;70664;51.472;5.712;2023-08-31T07:41:25;4.50;;;1.50;;
42104;SDS011;70664;51.472;5.712;2023-08-31T07:43:51;7.40;;;1.38;;
42104;SDS011;70664;51.472;5.712;2023-08-31T07:46:17;3.05;;;1.25;;
42104;SDS011;70664;51.472;5.712;2023-08-31T07:48:43;3.65;;;1.40;;
42104;SDS011;70664;51.472;5.712;2023-08-31T07:51:09;3.72;;;1.50;;
42104;SDS011;70664;51.472;5.712;2023-08-31T07:53:35;3.92;;;1.50;;
42104;SDS011;70664;51.472;5.712;2023-08-31T07:56:01;3.53;;;1.38;;
42104;SDS011;70664;51.472;5.712;2023-08-31T07:58:26;3.15;;;1.40;;
42104;SDS011;70664;51.472;5.712;2023-08-31T08:00:53;3.55;;;1.40;;
42104;SDS011;70664;51.472;5.712;2023-08-31T08:03:20;2.60;;;1.25;;
42104;SDS011;70664;51.472;5.712;2023-08-31T08:05:47;3.55;;;1.30;;
42104;SDS011;70664;51.472;5.712;2023-08-31T08:08:14;3.05;;;1.25;;
42104;SDS011;70664;51.472;5.712;2023-08-31T08:10:40;3.97;;;1.60;;
42104;SDS011;70664;51.472;5.712;2023-08-31T08:13:08;4.85;;;1.20;;
42104;SDS011;70664;51.472;5.712;2023-08-31T08:15:34;3.88;;;1.40;;
42104;SDS011;70664;51.472;5.712;2023-08-31T08:18:00;2.83;;;1.33;;
42104;SDS011;70664;51.472;5.712;2023-08-31T08:20:27;2.17;;;1.10;;
42104;SDS011;70664;51.472;5.712;2023-08-31T08:22:54;5.35;;;1.40;;
42104;SDS011;70664;51.472;5.712;2023-08-31T08:25:20;3.38;;;1.60;;
42104;SDS011;70664;51.472;5.712;2023-08-31T08:27:47;2.72;;;1.10;;
42104;SDS011;70664;51.472;5.712;2023-08-31T08:30:14;4.55;;;1.40;;
42104;SDS011;70664;51.472;5.712;2023-08-31T08:32:40;1.80;;;1.23;;
42104;SDS011;70664;51.472;5.712;2023-08-31T08:35:07;3.67;;;1.20;;
42104;SDS011;70664;51.472;5.712;2023-08-31T08:37:33;5.00;;;1.38;;
42104;SDS011;70664;51.472;5.712;2023-08-31T08:40:00;3.60;;;1.30;;
42104;SDS011;70664;51.472;5.712;2023-08-31T08:42:26;2.03;;;1.10;;
42104;SDS011;70664;51.472;5.712;2023-08-31T08:44:58;2.50;;;1.17;;
42104;SDS011;70664;51.472;5.712;2023-08-31T08:47:26;3.35;;;1.05;;
42104;SDS011;70664;51.472;5.712;2023-08-31T08:49:53;1.88;;;1.20;;
42104;SDS011;70664;51.472;5.712;2023-08-31T08:52:22;1.70;;;1.17;;
42104;SDS011;70664;51.472;5.712;2023-08-31T08:54:48;2.70;;;1.30;;
42104;SDS011;70664;51.472;5.712;2023-08-31T08:57:15;3.92;;;1.45;;
42104;SDS011;70664;51.472;5.712;2023-08-31T08:59:41;3.63;;;1.17;;
42104;SDS011;70664;51.472;5.712;2023-08-31T09:02:10;3.05;;;1.30;;
42104;SDS011;70664;51.472;5.712;2023-08-31T09:04:37;2.60;;;1.23;;
42104;SDS011;70664;51.472;5.712;2023-08-31T09:07:03;3.03;;;1.17;;
42104;SDS011;70664;51.472;5.712;2023-08-31T09:09:28;3.17;;;1.20;;
42104;SDS011;70664;51.472;5.712;2023-08-31T09:11:54;3.47;;;1.20;;
42104;SDS011;70664;51.472;5.712;2023-08-31T09:14:23;2.97;;;1.40;;
42104;SDS011;70664;51.472;5.712;2023-08-31T09:16:49;3.35;;;1.35;;
42104;SDS011;70664;51.472;5.712;2023-08-31T09:19:25;5.78;;;1.20;;
42104;SDS011;70664;51.472;5.712;2023-08-31T09:21:56;3.55;;;1.27;;
42104;SDS011;70664;51.472;5.712;2023-08-31T09:24:22;2.38;;;1.33;;
42104;SDS011;70664;51.472;5.712;2023-08-31T09:26:58;2.22;;;1.70;;
42104;SDS011;70664;51.472;5.712;2023-08-31T09:29:24;3.90;;;1.35;;
42104;SDS011;70664;51.472;5.712;2023-08-31T09:31:50;4.07;;;1.90;;
42104;SDS011;70664;51.472;5.712;2023-08-31T09:34:16;2.60;;;1.55;;
42104;SDS011;70664;51.472;5.712;2023-08-31T09:36:43;3.15;;;1.83;;
42104;SDS011;70664;51.472;5.712;2023-08-31T09:39:10;3.97;;;2.00;;
42104;SDS011;70664;51.472;5.712;2023-08-31T09:41:52;5.03;;;2.13;;
42104;SDS011;70664;51.472;5.712;2023-08-31T09:46:47;4.60;;;2.20;;
42104;SDS011;70664;51.472;5.712;2023-08-31T09:49:16;3.67;;;2.17;;
42104;SDS011;70664;51.472;5.712;2023-08-31T09:51:46;6.25;;;2.25;;
42104;SDS011;70664;51.472;5.712;2023-08-31T09:54:23;4.53;;;2.50;;
42104;SDS011;70664;51.472;5.712;2023-08-31T09:56:52;4.68;;;2.17;;
42104;SDS011;70664;51.472;5.712;2023-08-31T09:59:24;5.57;;;2.30;;
42104;SDS011;70664;51.472;5.712;2023-08-31T10:01:50;4.43;;;2.20;;
42104;SDS011;70664;51.472;5.712;2023-08-31T10:04:16;5.45;;;2.30;;
42104;SDS011;70664;51.472;5.712;2023-08-31T10:06:43;4.72;;;2.20;;
42104;SDS011;70664;51.472;5.712;2023-08-31T10:09:09;3.10;;;2.22;;
42104;SDS011;70664;51.472;5.712;2023-08-31T10:11:35;5.43;;;2.25;;
42104;SDS011;70664;51.472;5.712;2023-08-31T10:14:02;7.05;;;2.40;;
42104;SDS011;70664;51.472;5.712;2023-08-31T10:16:29;4.50;;;2.17;;
42104;SDS011;70664;51.472;5.712;2023-08-31T10:18:56;7.40;;;2.70;;
42104;SDS011;70664;51.472;5.712;2023-08-31T10:21:23;5.43;;;1.98;;
42104;SDS011;70664;51.472;5.712;2023-08-31T10:23:50;5.88;;;2.28;;
42104;SDS011;70664;51.472;5.712;2023-08-31T10:26:23;5.13;;;2.42;;
42104;SDS011;70664;51.472;5.712;2023-08-31T10:28:50;4.95;;;2.20;;
42104;SDS011;70664;51.472;5.712;2023-08-31T10:31:16;9.07;;;2.55;;
42104;SDS011;70664;51.472;5.712;2023-08-31T10:33:44;5.78;;;1.98;;
42104;SDS011;70664;51.472;5.712;2023-08-31T10:36:34;4.72;;;2.17;;
42104;SDS011;70664;51.472;5.712;2023-08-31T10:39:15;5.20;;;1.83;;
42104;SDS011;70664;51.472;5.712;2023-08-31T10:41:56;7.80;;;2.22;;
42104;SDS011;70664;51.472;5.712;2023-08-31T10:44:26;7.13;;;2.20;;
42104;SDS011;70664;51.472;5.712;2023-08-31T10:46:55;5.78;;;2.15;;
42104;SDS011;70664;51.472;5.712;2023-08-31T10:49:28;5.70;;;2.13;;
42104;SDS011;70664;51.472;5.712;2023-08-31T10:51:55;10.65;;;2.25;;
42104;SDS011;70664;51.472;5.712;2023-08-31T10:54:32;5.22;;;2.05;;
42104;SDS011;70664;51.472;5.712;2023-08-31T10:59:46;8.02;;;2.13;;
42104;SDS011;70664;51.472;5.712;2023-08-31T11:05:08;4.60;;;1.80;;
42104;SDS011;70664;51.472;5.712;2023-08-31T11:07:35;6.45;;;2.45;;
42104;SDS011;70664;51.472;5.712;2023-08-31T11:12:54;5.68;;;1.40;;
42104;SDS011;70664;51.472;5.712;2023-08-31T11:15:26;6.90;;;1.60;;
42104;SDS011;70664;51.472;5.712;2023-08-31T11:17:53;5.38;;;1.70;;
42104;SDS011;70664;51.472;5.712;2023-08-31T11:20:21;6.40;;;1.75;;
42104;SDS011;70664;51.472;5.712;2023-08-31T11:22:49;4.82;;;1.50;;
42104;SDS011;70664;51.472;5.712;2023-08-31T11:25:18;5.25;;;1.70;;
42104;SDS011;70664;51.472;5.712;2023-08-31T11:27:56;3.38;;;1.70;;
42104;SDS011;70664;51.472;5.712;2023-08-31T11:30:26;3.67;;;1.75;;
42104;SDS011;70664;51.472;5.712;2023-08-31T11:33:05;4.40;;;1.90;;
42104;SDS011;70664;51.472;5.712;2023-08-31T11:35:34;4.30;;;1.45;;
42104;SDS011;70664;51.472;5.712;2023-08-31T11:38:02;3.25;;;1.42;;
42104;SDS011;70664;51.472;5.712;2023-08-31T11:40:29;3.90;;;1.60;;
42104;SDS011;70664;51.472;5.712;2023-08-31T11:42:55;4.97;;;1.60;;
42104;SDS011;70664;51.472;5.712;2023-08-31T11:45:22;6.47;;;1.88;;
42104;SDS011;70664;51.472;5.712;2023-08-31T11:47:49;5.55;;;2.00;;
42104;SDS011;70664;51.472;5.712;2023-08-31T11:50:15;4.25;;;1.83;;
42104;SDS011;70664;51.472;5.712;2023-08-31T11:52:42;6.85;;;2.00;;
42104;SDS011;70664;51.472;5.712;2023-08-31T11:55:12;5.15;;;2.00;;
42104;SDS011;70664;51.472;5.712;2023-08-31T11:57:47;5.10;;;1.92;;
42104;SDS011;70664;51.472;5.712;2023-08-31T12:00:19;5.97;;;1.80;;
42104;SDS011;70664;51.472;5.712;2023-08-31T12:05:27;5.35;;;1.60;;
42104;SDS011;70664;51.472;5.712;2023-08-31T12:07:54;8.48;;;2.35;;
42104;SDS011;70664;51.472;5.712;2023-08-31T12:10:21;7.30;;;2.00;;
42104;SDS011;70664;51.472;5.712;2023-08-31T12:12:49;4.40;;;1.83;;
42104;SDS011;70664;51.472;5.712;2023-08-31T12:15:18;8.05;;;2.05;;
42104;SDS011;70664;51.472;5.712;2023-08-31T12:17:43;6.82;;;1.70;;
42104;SDS011;70664;51.472;5.712;2023-08-31T12:20:18;5.75;;;1.92;;
42104;SDS011;70664;51.472;5.712;2023-08-31T12:22:51;6.07;;;1.80;;
42104;SDS011;70664;51.472;5.712;2023-08-31T12:25:23;7.10;;;2.00;;
42104;SDS011;70664;51.472;5.712;2023-08-31T12:27:49;53.67;;;22.23;;
42104;SDS011;70664;51.472;5.712;2023-08-31T12:30:15;43.55;;;17.45;;
42104;SDS011;70664;51.472;5.712;2023-08-31T12:32:41;25.17;;;8.98;;
42104;SDS011;70664;51.472;5.712;2023-08-31T12:35:06;30.00;;;9.93;;
42104;SDS011;70664;51.472;5.712;2023-08-31T12:37:34;15.75;;;5.45;;
42104;SDS011;70664;51.472;5.712;2023-08-31T12:40:00;35.47;;;11.23;;
42104;SDS011;70664;51.472;5.712;2023-08-31T12:42:29;18.75;;;6.70;;
42104;SDS011;70664;51.472;5.712;2023-08-31T12:44:55;21.77;;;7.47;;
42104;SDS011;70664;51.472;5.712;2023-08-31T12:47:21;20.80;;;7.20;;
42104;SDS011;70664;51.472;5.712;2023-08-31T12:49:46;33.13;;;9.88;;
42104;SDS011;70664;51.472;5.712;2023-08-31T12:52:12;33.05;;;9.85;;
42104;SDS011;70664;51.472;5.712;2023-08-31T12:54:39;25.23;;;7.63;;
42104;SDS011;70664;51.472;5.712;2023-08-31T12:57:05;43.47;;;17.38;;
42104;SDS011;70664;51.472;5.712;2023-08-31T12:59:30;33.10;;;13.55;;
42104;SDS011;70664;51.472;5.712;2023-08-31T13:01:56;28.27;;;10.85;;
42104;SDS011;70664;51.472;5.712;2023-08-31T13:04:22;25.27;;;9.25;;
42104;SDS011;70664;51.472;5.712;2023-08-31T13:06:48;26.60;;;9.73;;
42104;SDS011;70664;51.472;5.712;2023-08-31T13:09:14;27.50;;;9.20;;
42104;SDS011;70664;51.472;5.712;2023-08-31T13:11:40;23.27;;;8.15;;
42104;SDS011;70664;51.472;5.712;2023-08-31T13:14:06;22.48;;;8.65;;
42104;SDS011;70664;51.472;5.712;2023-08-31T13:16:32;23.27;;;8.55;;
42104;SDS011;70664;51.472;5.712;2023-08-31T13:19:01;20.55;;;7.47;;
42104;SDS011;70664;51.472;5.712;2023-08-31T13:21:27;23.20;;;7.28;;
42104;SDS011;70664;51.472;5.712;2023-08-31T13:23:53;19.05;;;6.85;;
42104;SDS011;70664;51.472;5.712;2023-08-31T13:26:19;19.63;;;6.90;;
42104;SDS011;70664;51.472;5.712;2023-08-31T13:28:44;20.00;;;6.55;;
42104;SDS011;70664;51.472;5.712;2023-08-31T13:31:10;20.58;;;6.90;;
42104;SDS011;70664;51.472;5.712;2023-08-31T13:33:36;16.30;;;6.43;;
42104;SDS011;70664;51.472;5.712;2023-08-31T13:36:02;21.17;;;6.57;;
42104;SDS011;70664;51.472;5.712;2023-08-31T13:38:28;17.27;;;6.32;;
42104;SDS011;70664;51.472;5.712;2023-08-31T13:40:55;16.35;;;6.70;;
42104;SDS011;70664;51.472;5.712;2023-08-31T13:43:23;17.42;;;6.35;;
42104;SDS011;70664;51.472;5.712;2023-08-31T13:45:49;21.75;;;5.78;;
42104;SDS011;70664;51.472;5.712;2023-08-31T13:48:15;16.05;;;5.32;;
42104;SDS011;70664;51.472;5.712;2023-08-31T13:50:41;18.38;;;6.43;;
42104;SDS011;70664;51.472;5.712;2023-08-31T13:53:08;19.52;;;6.05;;
42104;SDS011;70664;51.472;5.712;2023-08-31T13:55:34;15.88;;;5.45;;
42104;SDS011;70664;51.472;5.712;2023-08-31T13:58:03;18.67;;;6.13;;
42104;SDS011;70664;51.472;5.712;2023-08-31T14:00:32;14.75;;;5.88;;
42104;SDS011;70664;51.472;5.712;2023-08-31T14:03:01;19.25;;;6.40;;
42104;SDS011;70664;51.472;5.712;2023-08-31T14:05:29;10.18;;;4.93;;
42104;SDS011;70664;51.472;5.712;2023-08-31T14:07:56;15.13;;;5.43;;
42104;SDS011;70664;51.472;5.712;2023-08-31T14:10:23;17.48;;;5.10;;
42104;SDS011;70664;51.472;5.712;2023-08-31T14:12:50;13.13;;;5.25;;
42104;SDS011;70664;51.472;5.712;2023-08-31T14:15:15;11.32;;;5.20;;
42104;SDS011;70664;51.472;5.712;2023-08-31T14:17:41;20.92;;;5.88;;
42104;SDS011;70664;51.472;5.712;2023-08-31T14:20:07;15.35;;;5.15;;
42104;SDS011;70664;51.472;5.712;2023-08-31T14:22:35;11.48;;;4.90;;
42104;SDS011;70664;51.472;5.712;2023-08-31T14:25:01;12.82;;;4.65;;
42104;SDS011;70664;51.472;5.712;2023-08-31T14:27:28;11.88;;;5.00;;
42104;SDS011;70664;51.472;5.712;2023-08-31T14:29:55;12.45;;;4.50;;
42104;SDS011;70664;51.472;5.712;2023-08-31T14:32:24;16.15;;;5.05;;
42104;SDS011;70664;51.472;5.712;2023-08-31T14:34:50;13.45;;;5.10;;
42104;SDS011;70664;51.472;5.712;2023-08-31T14:37:15;11.18;;;4.47;;
42104;SDS011;70664;51.472;5.712;2023-08-31T14:39:41;13.57;;;4.85;;
42104;SDS011;70664;51.472;5.712;2023-08-31T14:42:07;20.08;;;4.90;;
42104;SDS011;70664;51.472;5.712;2023-08-31T14:44:33;11.00;;;4.75;;
42104;SDS011;70664;51.472;5.712;2023-08-31T14:46:59;16.25;;;4.28;;
42104;SDS011;70664;51.472;5.712;2023-08-31T14:49:24;14.60;;;4.47;;
42104;SDS011;70664;51.472;5.712;2023-08-31T14:51:50;8.68;;;4.22;;
42104;SDS011;70664;51.472;5.712;2023-08-31T14:54:17;13.52;;;4.65;;
42104;SDS011;70664;51.472;5.712;2023-08-31T14:56:43;15.05;;;4.13;;
42104;SDS011;70664;51.472;5.712;2023-08-31T14:59:08;11.07;;;3.80;;
42104;SDS011;70664;51.472;5.712;2023-08-31T15:01:34;12.88;;;4.15;;
42104;SDS011;70664;51.472;5.712;2023-08-31T15:04:00;8.77;;;3.72;;
42104;SDS011;70664;51.472;5.712;2023-08-31T15:06:26;10.10;;;4.53;;
42104;SDS011;70664;51.472;5.712;2023-08-31T15:08:52;20.73;;;4.32;;